sensor_id;sensor_type;location;lat;lon;timestamp;P1;durP1;ratioP1;P2;durP2;ratioP2
27921;SDS011;15261;50.356;10.340;2022-08-19T00:00:04;23.98;;;21.02;;
27921;SDS011;15261;50.356;10.340;2022-08-19T00:02:32;23.38;;;21.00;;
27921;SDS011;15261;50.356;10.340;2022-08-19T00:04:58;24.88;;;22.45;;
27921;SDS011;15261;50.356;10.340;2022-08-19T00:07:24;23.50;;;21.20;;
27921;SDS011;15261;50.356;10.340;2022-08-19T00:09:49;26.42;;;22.40;;
27921;SDS011;15261;50.356;10.340;2022-08-19T00:12:15;25.17;;;22.52;;
27921;SDS011;15261;50.356;10.340;2022-08-19T00:14:40;24.30;;;21.27;;
27921;SDS011;15261;50.356;10.340;2022-08-19T00:17:06;24.80;;;22.40;;
27921;SDS011;15261;50.356;10.340;2022-08-19T00:19:33;24.65;;;22.08;;
27921;SDS011;15261;50.356;10.340;2022-08-19T00:22:01;24.33;;;21.85;;
27921;SDS011;15261;50.356;10.340;2022-08-19T00:24:27;24.63;;;22.02;;
27921;SDS011;15261;50.356;10.340;2022-08-19T00:26:53;22.77;;;20.48;;
27921;SDS011;15261;50.356;10.340;2022-08-19T00:32:13;24.48;;;21.95;;
27921;SDS011;15261;50.356;10.340;2022-08-19T00:34:39;23.17;;;20.67;;
27921;SDS011;15261;50.356;10.340;2022-08-19T00:37:05;23.40;;;21.05;;
27921;SDS011;15261;50.356;10.340;2022-08-19T00:39:30;22.10;;;19.77;;
27921;SDS011;15261;50.356;10.340;2022-08-19T00:41:56;23.83;;;20.60;;
27921;SDS011;15261;50.356;10.340;2022-08-19T00:44:24;22.98;;;20.58;;
27921;SDS011;15261;50.356;10.340;2022-08-19T00:46:52;21.33;;;19.17;;
27921;SDS011;15261;50.356;10.340;2022-08-19T00:49:23;22.23;;;19.90;;
27921;SDS011;15261;50.356;10.340;2022-08-19T00:51:57;20.95;;;18.85;;
27921;SDS011;15261;50.356;10.340;2022-08-19T00:54:31;21.95;;;19.95;;
27921;SDS011;15261;50.356;10.340;2022-08-19T00:56:58;21.48;;;19.33;;
27921;SDS011;15261;50.356;10.340;2022-08-19T00:59:24;20.67;;;18.60;;
27921;SDS011;15261;50.356;10.340;2022-08-19T01:01:50;20.38;;;18.35;;
27921;SDS011;15261;50.356;10.340;2022-08-19T01:04:17;19.75;;;17.70;;
27921;SDS011;15261;50.356;10.340;2022-08-19T01:06:42;21.73;;;19.55;;
27921;SDS011;15261;50.356;10.340;2022-08-19T01:09:08;18.95;;;17.05;;
27921;SDS011;15261;50.356;10.340;2022-08-19T01:11:34;21.02;;;17.55;;
27921;SDS011;15261;50.356;10.340;2022-08-19T01:14:03;18.35;;;16.42;;
27921;SDS011;15261;50.356;10.340;2022-08-19T01:16:30;18.83;;;17.02;;
27921;SDS011;15261;50.356;10.340;2022-08-19T01:18:57;19.52;;;17.55;;
27921;SDS011;15261;50.356;10.340;2022-08-19T01:24:11;18.60;;;16.70;;
27921;SDS011;15261;50.356;10.340;2022-08-19T01:26:41;18.42;;;16.52;;
27921;SDS011;15261;50.356;10.340;2022-08-19T01:29:08;18.67;;;16.73;;
27921;SDS011;15261;50.356;10.340;2022-08-19T01:31:34;19.35;;;17.40;;
27921;SDS011;15261;50.356;10.340;2022-08-19T01:34:02;18.08;;;16.33;;
27921;SDS011;15261;50.356;10.340;2022-08-19T01:36:34;18.45;;;16.55;;
27921;SDS011;15261;50.356;10.340;2022-08-19T01:39:18;17.73;;;15.93;;
27921;SDS011;15261;50.356;10.340;2022-08-19T01:41:47;17.25;;;15.55;;
27921;SDS011;15261;50.356;10.340;2022-08-19T01:44:13;16.55;;;15.05;;
27921;SDS011;15261;50.356;10.340;2022-08-19T01:46:39;18.08;;;16.38;;
27921;SDS011;15261;50.356;10.340;2022-08-19T01:49:06;17.35;;;15.65;;
27921;SDS011;15261;50.356;10.340;2022-08-19T01:51:33;17.60;;;15.95;;
27921;SDS011;15261;50.356;10.340;2022-08-19T01:53:58;17.52;;;15.52;;
27921;SDS011;15261;50.356;10.340;2022-08-19T01:56:25;19.63;;;16.05;;
27921;SDS011;15261;50.356;10.340;2022-08-19T01:58:51;17.20;;;15.52;;
27921;SDS011;15261;50.356;10.340;2022-08-19T02:01:22;18.48;;;16.58;;
27921;SDS011;15261;50.356;10.340;2022-08-19T02:03:48;16.70;;;15.20;;
27921;SDS011;15261;50.356;10.340;2022-08-19T02:06:14;16.10;;;14.57;;
27921;SDS011;15261;50.356;10.340;2022-08-19T02:08:41;16.10;;;14.68;;
27921;SDS011;15261;50.356;10.340;2022-08-19T02:11:10;17.40;;;15.50;;
27921;SDS011;15261;50.356;10.340;2022-08-19T02:13:47;17.52;;;15.90;;
27921;SDS011;15261;50.356;10.340;2022-08-19T02:16:14;17.33;;;15.63;;
27921;SDS011;15261;50.356;10.340;2022-08-19T02:18:41;16.27;;;14.77;;
27921;SDS011;15261;50.356;10.340;2022-08-19T02:21:06;16.65;;;14.82;;
27921;SDS011;15261;50.356;10.340;2022-08-19T02:23:32;16.02;;;14.50;;
27921;SDS011;15261;50.356;10.340;2022-08-19T02:25:57;16.15;;;14.55;;
27921;SDS011;15261;50.356;10.340;2022-08-19T02:28:23;16.35;;;14.55;;
27921;SDS011;15261;50.356;10.340;2022-08-19T02:30:49;15.88;;;14.23;;
27921;SDS011;15261;50.356;10.340;2022-08-19T02:33:15;17.52;;;14.27;;
27921;SDS011;15261;50.356;10.340;2022-08-19T02:35:42;15.95;;;14.38;;
27921;SDS011;15261;50.356;10.340;2022-08-19T02:38:12;16.85;;;15.15;;
27921;SDS011;15261;50.356;10.340;2022-08-19T02:40:56;17.15;;;15.45;;
27921;SDS011;15261;50.356;10.340;2022-08-19T02:43:24;17.27;;;15.57;;
27921;SDS011;15261;50.356;10.340;2022-08-19T02:45:51;17.48;;;15.75;;
27921;SDS011;15261;50.356;10.340;2022-08-19T02:48:21;17.33;;;15.10;;
27921;SDS011;15261;50.356;10.340;2022-08-19T02:50:49;17.60;;;15.90;;
27921;SDS011;15261;50.356;10.340;2022-08-19T02:53:26;16.85;;;15.35;;
27921;SDS011;15261;50.356;10.340;2022-08-19T02:55:52;16.83;;;15.20;;
27921;SDS011;15261;50.356;10.340;2022-08-19T02:58:19;17.70;;;16.08;;
27921;SDS011;15261;50.356;10.340;2022-08-19T03:04:09;16.88;;;15.18;;
27921;SDS011;15261;50.356;10.340;2022-08-19T03:06:38;17.70;;;15.98;;
27921;SDS011;15261;50.356;10.340;2022-08-19T03:09:04;16.83;;;15.23;;
27921;SDS011;15261;50.356;10.340;2022-08-19T03:11:31;18.10;;;16.10;;
27921;SDS011;15261;50.356;10.340;2022-08-19T03:13:58;17.27;;;15.45;;
27921;SDS011;15261;50.356;10.340;2022-08-19T03:16:25;17.45;;;15.85;;
27921;SDS011;15261;50.356;10.340;2022-08-19T03:18:52;17.20;;;15.45;;
27921;SDS011;15261;50.356;10.340;2022-08-19T03:21:23;17.33;;;15.77;;
27921;SDS011;15261;50.356;10.340;2022-08-19T03:23:50;17.10;;;15.57;;
27921;SDS011;15261;50.356;10.340;2022-08-19T03:26:19;17.23;;;15.60;;
27921;SDS011;15261;50.356;10.340;2022-08-19T03:28:45;17.83;;;16.15;;
27921;SDS011;15261;50.356;10.340;2022-08-19T03:31:14;17.63;;;15.90;;
27921;SDS011;15261;50.356;10.340;2022-08-19T03:33:42;17.33;;;15.63;;
27921;SDS011;15261;50.356;10.340;2022-08-19T03:38:45;17.77;;;16.00;;
27921;SDS011;15261;50.356;10.340;2022-08-19T03:41:21;16.35;;;14.75;;
27921;SDS011;15261;50.356;10.340;2022-08-19T03:43:48;17.50;;;15.80;;
27921;SDS011;15261;50.356;10.340;2022-08-19T03:46:19;17.65;;;16.00;;
27921;SDS011;15261;50.356;10.340;2022-08-19T03:48:47;16.95;;;15.23;;
27921;SDS011;15261;50.356;10.340;2022-08-19T03:51:32;16.70;;;15.10;;
27921;SDS011;15261;50.356;10.340;2022-08-19T03:54:03;16.73;;;15.10;;
27921;SDS011;15261;50.356;10.340;2022-08-19T03:56:34;16.67;;;14.93;;
27921;SDS011;15261;50.356;10.340;2022-08-19T03:59:00;16.60;;;15.00;;
27921;SDS011;15261;50.356;10.340;2022-08-19T04:01:27;16.40;;;14.63;;
27921;SDS011;15261;50.356;10.340;2022-08-19T04:03:57;16.30;;;14.90;;
27921;SDS011;15261;50.356;10.340;2022-08-19T04:06:25;18.00;;;15.30;;
27921;SDS011;15261;50.356;10.340;2022-08-19T04:08:56;17.48;;;15.75;;
27921;SDS011;15261;50.356;10.340;2022-08-19T04:11:25;17.55;;;15.95;;
27921;SDS011;15261;50.356;10.340;2022-08-19T04:13:58;18.48;;;16.63;;
27921;SDS011;15261;50.356;10.340;2022-08-19T04:16:25;20.90;;;16.65;;
27921;SDS011;15261;50.356;10.340;2022-08-19T04:18:55;19.13;;;17.27;;
27921;SDS011;15261;50.356;10.340;2022-08-19T04:21:24;18.67;;;16.88;;
27921;SDS011;15261;50.356;10.340;2022-08-19T04:23:51;18.88;;;16.98;;
27921;SDS011;15261;50.356;10.340;2022-08-19T04:26:22;19.92;;;17.13;;
27921;SDS011;15261;50.356;10.340;2022-08-19T04:28:49;20.85;;;17.48;;
27921;SDS011;15261;50.356;10.340;2022-08-19T04:31:24;19.15;;;17.30;;
27921;SDS011;15261;50.356;10.340;2022-08-19T04:33:54;19.15;;;17.17;;
27921;SDS011;15261;50.356;10.340;2022-08-19T04:36:24;18.80;;;16.90;;
27921;SDS011;15261;50.356;10.340;2022-08-19T04:38:55;20.02;;;17.88;;
27921;SDS011;15261;50.356;10.340;2022-08-19T04:41:23;20.63;;;18.42;;
27921;SDS011;15261;50.356;10.340;2022-08-19T04:44:07;20.00;;;17.90;;
27921;SDS011;15261;50.356;10.340;2022-08-19T04:46:33;20.17;;;16.67;;
27921;SDS011;15261;50.356;10.340;2022-08-19T04:48:59;18.38;;;16.60;;
27921;SDS011;15261;50.356;10.340;2022-08-19T04:51:26;17.77;;;15.93;;
27921;SDS011;15261;50.356;10.340;2022-08-19T04:53:52;22.30;;;16.75;;
27921;SDS011;15261;50.356;10.340;2022-08-19T04:56:18;17.23;;;15.45;;
27921;SDS011;15261;50.356;10.340;2022-08-19T04:58:46;17.25;;;15.45;;
27921;SDS011;15261;50.356;10.340;2022-08-19T05:01:12;16.52;;;14.93;;
27921;SDS011;15261;50.356;10.340;2022-08-19T05:03:41;16.35;;;14.73;;
27921;SDS011;15261;50.356;10.340;2022-08-19T05:06:08;17.77;;;15.93;;
27921;SDS011;15261;50.356;10.340;2022-08-19T05:08:37;17.17;;;15.45;;
27921;SDS011;15261;50.356;10.340;2022-08-19T05:13:53;20.20;;;16.73;;
27921;SDS011;15261;50.356;10.340;2022-08-19T05:16:20;18.50;;;16.55;;
27921;SDS011;15261;50.356;10.340;2022-08-19T05:18:47;18.85;;;17.15;;
27921;SDS011;15261;50.356;10.340;2022-08-19T05:21:31;19.40;;;17.50;;
27921;SDS011;15261;50.356;10.340;2022-08-19T05:24:17;19.42;;;17.50;;
27921;SDS011;15261;50.356;10.340;2022-08-19T05:26:44;22.60;;;18.13;;
27921;SDS011;15261;50.356;10.340;2022-08-19T05:29:12;21.23;;;19.13;;
27921;SDS011;15261;50.356;10.340;2022-08-19T05:31:39;19.58;;;17.63;;
27921;SDS011;15261;50.356;10.340;2022-08-19T05:34:05;22.08;;;19.85;;
27921;SDS011;15261;50.356;10.340;2022-08-19T05:36:49;23.48;;;21.20;;
27921;SDS011;15261;50.356;10.340;2022-08-19T05:39:22;22.38;;;20.27;;
27921;SDS011;15261;50.356;10.340;2022-08-19T05:41:55;22.48;;;20.25;;
27921;SDS011;15261;50.356;10.340;2022-08-19T05:44:27;24.42;;;22.08;;
27921;SDS011;15261;50.356;10.340;2022-08-19T05:46:58;22.00;;;19.92;;
27921;SDS011;15261;50.356;10.340;2022-08-19T05:52:57;23.52;;;21.23;;
27921;SDS011;15261;50.356;10.340;2022-08-19T05:55:23;25.10;;;22.27;;
27921;SDS011;15261;50.356;10.340;2022-08-19T05:57:49;26.85;;;23.45;;
27921;SDS011;15261;50.356;10.340;2022-08-19T06:00:14;23.85;;;21.65;;
27921;SDS011;15261;50.356;10.340;2022-08-19T06:02:40;24.98;;;22.27;;
27921;SDS011;15261;50.356;10.340;2022-08-19T06:05:06;24.90;;;22.45;;
27921;SDS011;15261;50.356;10.340;2022-08-19T06:07:37;26.17;;;22.00;;
27921;SDS011;15261;50.356;10.340;2022-08-19T06:12:52;25.08;;;22.55;;
27921;SDS011;15261;50.356;10.340;2022-08-19T06:15:18;23.55;;;21.27;;
27921;SDS011;15261;50.356;10.340;2022-08-19T06:17:46;24.25;;;21.83;;
27921;SDS011;15261;50.356;10.340;2022-08-19T06:20:14;23.95;;;21.70;;
27921;SDS011;15261;50.356;10.340;2022-08-19T06:25:06;24.10;;;21.70;;
27921;SDS011;15261;50.356;10.340;2022-08-19T06:27:34;25.10;;;22.52;;
27921;SDS011;15261;50.356;10.340;2022-08-19T06:30:00;24.48;;;22.08;;
27921;SDS011;15261;50.356;10.340;2022-08-19T06:32:28;23.80;;;21.35;;
27921;SDS011;15261;50.356;10.340;2022-08-19T06:37:39;22.23;;;20.05;;
27921;SDS011;15261;50.356;10.340;2022-08-19T06:40:05;22.52;;;20.42;;
27921;SDS011;15261;50.356;10.340;2022-08-19T06:42:33;22.70;;;20.15;;
27921;SDS011;15261;50.356;10.340;2022-08-19T06:48:07;22.27;;;20.05;;
27921;SDS011;15261;50.356;10.340;2022-08-19T06:50:33;21.10;;;19.05;;
27921;SDS011;15261;50.356;10.340;2022-08-19T06:52:58;21.60;;;19.30;;
27921;SDS011;15261;50.356;10.340;2022-08-19T06:55:26;21.10;;;19.10;;
27921;SDS011;15261;50.356;10.340;2022-08-19T06:57:53;20.95;;;18.95;;
27921;SDS011;15261;50.356;10.340;2022-08-19T07:00:19;22.60;;;20.25;;
27921;SDS011;15261;50.356;10.340;2022-08-19T07:02:44;22.02;;;19.90;;
27921;SDS011;15261;50.356;10.340;2022-08-19T07:05:10;21.80;;;19.05;;
27921;SDS011;15261;50.356;10.340;2022-08-19T07:07:35;20.48;;;18.67;;
27921;SDS011;15261;50.356;10.340;2022-08-19T07:10:01;18.98;;;17.25;;
27921;SDS011;15261;50.356;10.340;2022-08-19T07:12:28;19.02;;;17.20;;
27921;SDS011;15261;50.356;10.340;2022-08-19T07:14:59;18.90;;;17.10;;
27921;SDS011;15261;50.356;10.340;2022-08-19T07:17:25;16.35;;;14.15;;
27921;SDS011;15261;50.356;10.340;2022-08-19T07:22:50;15.27;;;11.52;;
27921;SDS011;15261;50.356;10.340;2022-08-19T07:25:16;11.35;;;9.88;;
27921;SDS011;15261;50.356;10.340;2022-08-19T07:27:43;11.27;;;10.18;;
27921;SDS011;15261;50.356;10.340;2022-08-19T07:32:57;11.50;;;9.35;;
27921;SDS011;15261;50.356;10.340;2022-08-19T07:35:23;9.85;;;8.90;;
27921;SDS011;15261;50.356;10.340;2022-08-19T07:37:49;9.48;;;8.57;;
27921;SDS011;15261;50.356;10.340;2022-08-19T07:40:15;11.05;;;8.05;;
27921;SDS011;15261;50.356;10.340;2022-08-19T07:45:28;10.23;;;7.95;;
27921;SDS011;15261;50.356;10.340;2022-08-19T07:47:54;11.95;;;8.30;;
27921;SDS011;15261;50.356;10.340;2022-08-19T07:50:20;9.60;;;7.80;;
27921;SDS011;15261;50.356;10.340;2022-08-19T07:55:19;8.40;;;7.40;;
27921;SDS011;15261;50.356;10.340;2022-08-19T07:57:46;9.02;;;8.23;;
27921;SDS011;15261;50.356;10.340;2022-08-19T08:00:11;10.80;;;7.85;;
27921;SDS011;15261;50.356;10.340;2022-08-19T08:02:38;11.25;;;7.63;;
27921;SDS011;15261;50.356;10.340;2022-08-19T08:05:04;11.20;;;7.00;;
27921;SDS011;15261;50.356;10.340;2022-08-19T08:07:48;14.88;;;7.15;;
27921;SDS011;15261;50.356;10.340;2022-08-19T08:10:32;8.80;;;7.20;;
27921;SDS011;15261;50.356;10.340;2022-08-19T08:12:57;11.40;;;6.85;;
27921;SDS011;15261;50.356;10.340;2022-08-19T08:15:23;9.05;;;6.72;;
27921;SDS011;15261;50.356;10.340;2022-08-19T08:17:56;7.60;;;6.50;;
27921;SDS011;15261;50.356;10.340;2022-08-19T08:20:22;8.23;;;6.75;;
27921;SDS011;15261;50.356;10.340;2022-08-19T08:22:48;11.73;;;6.22;;
27921;SDS011;15261;50.356;10.340;2022-08-19T08:25:32;7.72;;;6.47;;
27921;SDS011;15261;50.356;10.340;2022-08-19T08:28:00;6.70;;;5.90;;
27921;SDS011;15261;50.356;10.340;2022-08-19T08:30:27;10.90;;;6.40;;
27921;SDS011;15261;50.356;10.340;2022-08-19T08:32:55;8.57;;;6.30;;
27921;SDS011;15261;50.356;10.340;2022-08-19T08:35:22;12.10;;;6.32;;
27921;SDS011;15261;50.356;10.340;2022-08-19T08:37:48;8.85;;;6.53;;
27921;SDS011;15261;50.356;10.340;2022-08-19T08:40:19;6.75;;;5.57;;
27921;SDS011;15261;50.356;10.340;2022-08-19T08:42:49;9.10;;;6.60;;
27921;SDS011;15261;50.356;10.340;2022-08-19T08:45:20;9.75;;;6.25;;
27921;SDS011;15261;50.356;10.340;2022-08-19T08:47:48;8.10;;;6.25;;
27921;SDS011;15261;50.356;10.340;2022-08-19T08:52:52;11.13;;;6.47;;
27921;SDS011;15261;50.356;10.340;2022-08-19T08:55:22;10.43;;;5.88;;
27921;SDS011;15261;50.356;10.340;2022-08-19T08:57:55;9.20;;;5.90;;
27921;SDS011;15261;50.356;10.340;2022-08-19T09:02:51;9.23;;;5.97;;
27921;SDS011;15261;50.356;10.340;2022-08-19T09:05:19;7.38;;;5.80;;
27921;SDS011;15261;50.356;10.340;2022-08-19T09:16:17;6.88;;;6.00;;
27921;SDS011;15261;50.356;10.340;2022-08-19T09:18:57;7.68;;;6.13;;
27921;SDS011;15261;50.356;10.340;2022-08-19T09:21:25;10.75;;;5.93;;
27921;SDS011;15261;50.356;10.340;2022-08-19T09:23:52;6.97;;;5.80;;
27921;SDS011;15261;50.356;10.340;2022-08-19T09:26:19;8.52;;;6.10;;
27921;SDS011;15261;50.356;10.340;2022-08-19T09:28:47;6.93;;;6.22;;
27921;SDS011;15261;50.356;10.340;2022-08-19T09:31:19;9.90;;;6.50;;
27921;SDS011;15261;50.356;10.340;2022-08-19T09:33:50;9.13;;;6.45;;
27921;SDS011;15261;50.356;10.340;2022-08-19T09:36:17;7.90;;;5.65;;
27921;SDS011;15261;50.356;10.340;2022-08-19T09:38:44;7.43;;;5.05;;
27921;SDS011;15261;50.356;10.340;2022-08-19T09:41:12;7.00;;;5.30;;
27921;SDS011;15261;50.356;10.340;2022-08-19T09:43:41;5.28;;;4.60;;
27921;SDS011;15261;50.356;10.340;2022-08-19T09:46:09;7.22;;;4.68;;
27921;SDS011;15261;50.356;10.340;2022-08-19T09:48:38;5.03;;;4.45;;
27921;SDS011;15261;50.356;10.340;2022-08-19T09:51:05;5.97;;;4.32;;
27921;SDS011;15261;50.356;10.340;2022-08-19T09:53:45;7.88;;;4.75;;
27921;SDS011;15261;50.356;10.340;2022-08-19T09:56:12;4.78;;;3.90;;
27921;SDS011;15261;50.356;10.340;2022-08-19T09:58:39;6.20;;;4.00;;
27921;SDS011;15261;50.356;10.340;2022-08-19T10:01:05;4.72;;;3.63;;
27921;SDS011;15261;50.356;10.340;2022-08-19T10:03:33;4.57;;;3.65;;
27921;SDS011;15261;50.356;10.340;2022-08-19T10:06:02;4.88;;;3.35;;
27921;SDS011;15261;50.356;10.340;2022-08-19T10:08:34;5.25;;;3.90;;
27921;SDS011;15261;50.356;10.340;2022-08-19T10:11:01;3.33;;;3.03;;
27921;SDS011;15261;50.356;10.340;2022-08-19T10:13:29;3.50;;;3.20;;
27921;SDS011;15261;50.356;10.340;2022-08-19T10:15:57;6.05;;;2.90;;
27921;SDS011;15261;50.356;10.340;2022-08-19T10:23:45;2.83;;;2.60;;
27921;SDS011;15261;50.356;10.340;2022-08-19T10:26:14;3.22;;;2.70;;
27921;SDS011;15261;50.356;10.340;2022-08-19T10:28:43;2.85;;;2.65;;
27921;SDS011;15261;50.356;10.340;2022-08-19T10:31:13;3.17;;;2.75;;
27921;SDS011;15261;50.356;10.340;2022-08-19T10:33:42;9.82;;;3.33;;
27921;SDS011;15261;50.356;10.340;2022-08-19T10:36:10;3.53;;;2.83;;
27921;SDS011;15261;50.356;10.340;2022-08-19T10:38:38;7.65;;;3.15;;
27921;SDS011;15261;50.356;10.340;2022-08-19T10:41:14;6.95;;;3.20;;
27921;SDS011;15261;50.356;10.340;2022-08-19T10:43:42;5.82;;;3.42;;
27921;SDS011;15261;50.356;10.340;2022-08-19T10:49:11;7.53;;;2.95;;
27921;SDS011;15261;50.356;10.340;2022-08-19T10:54:44;4.50;;;2.88;;
27921;SDS011;15261;50.356;10.340;2022-08-19T10:57:38;3.83;;;2.80;;
27921;SDS011;15261;50.356;10.340;2022-08-19T11:00:03;2.60;;;2.40;;
27921;SDS011;15261;50.356;10.340;2022-08-19T11:02:30;3.45;;;2.60;;
27921;SDS011;15261;50.356;10.340;2022-08-19T11:04:57;8.15;;;2.97;;
27921;SDS011;15261;50.356;10.340;2022-08-19T11:07:23;3.63;;;2.63;;
27921;SDS011;15261;50.356;10.340;2022-08-19T11:09:48;3.65;;;2.72;;
27921;SDS011;15261;50.356;10.340;2022-08-19T11:12:14;4.50;;;2.28;;
27921;SDS011;15261;50.356;10.340;2022-08-19T11:14:40;3.15;;;2.35;;
27921;SDS011;15261;50.356;10.340;2022-08-19T11:17:06;3.72;;;2.50;;
27921;SDS011;15261;50.356;10.340;2022-08-19T11:19:32;3.78;;;2.60;;
27921;SDS011;15261;50.356;10.340;2022-08-19T11:24:43;3.33;;;2.60;;
27921;SDS011;15261;50.356;10.340;2022-08-19T11:27:10;5.03;;;2.20;;
27921;SDS011;15261;50.356;10.340;2022-08-19T11:29:37;2.88;;;2.10;;
27921;SDS011;15261;50.356;10.340;2022-08-19T11:32:07;3.35;;;2.20;;
27921;SDS011;15261;50.356;10.340;2022-08-19T11:34:35;2.45;;;1.95;;
27921;SDS011;15261;50.356;10.340;2022-08-19T11:37:02;7.35;;;2.10;;
27921;SDS011;15261;50.356;10.340;2022-08-19T11:39:29;2.05;;;1.90;;
27921;SDS011;15261;50.356;10.340;2022-08-19T11:42:11;1.83;;;1.73;;
27921;SDS011;15261;50.356;10.340;2022-08-19T11:44:59;2.10;;;1.90;;
27921;SDS011;15261;50.356;10.340;2022-08-19T11:47:29;2.25;;;1.73;;
27921;SDS011;15261;50.356;10.340;2022-08-19T11:49:56;2.22;;;2.03;;
27921;SDS011;15261;50.356;10.340;2022-08-19T11:52:22;2.30;;;2.10;;
27921;SDS011;15261;50.356;10.340;2022-08-19T11:54:47;1.83;;;1.73;;
27921;SDS011;15261;50.356;10.340;2022-08-19T11:57:13;2.20;;;2.08;;
27921;SDS011;15261;50.356;10.340;2022-08-19T11:59:42;1.98;;;1.88;;
27921;SDS011;15261;50.356;10.340;2022-08-19T12:02:13;2.85;;;2.17;;
27921;SDS011;15261;50.356;10.340;2022-08-19T12:04:40;2.35;;;1.80;;
27921;SDS011;15261;50.356;10.340;2022-08-19T12:07:05;2.47;;;1.77;;
27921;SDS011;15261;50.356;10.340;2022-08-19T12:09:31;1.70;;;1.60;;
27921;SDS011;15261;50.356;10.340;2022-08-19T12:11:59;2.53;;;1.90;;
27921;SDS011;15261;50.356;10.340;2022-08-19T12:14:25;1.98;;;1.75;;
27921;SDS011;15261;50.356;10.340;2022-08-19T12:16:52;2.88;;;2.00;;
27921;SDS011;15261;50.356;10.340;2022-08-19T12:19:18;3.88;;;1.80;;
27921;SDS011;15261;50.356;10.340;2022-08-19T12:21:44;2.00;;;1.80;;
27921;SDS011;15261;50.356;10.340;2022-08-19T12:24:10;2.08;;;1.80;;
27921;SDS011;15261;50.356;10.340;2022-08-19T12:26:36;3.92;;;2.20;;
27921;SDS011;15261;50.356;10.340;2022-08-19T12:29:02;2.03;;;1.83;;
27921;SDS011;15261;50.356;10.340;2022-08-19T12:31:28;2.05;;;1.80;;
27921;SDS011;15261;50.356;10.340;2022-08-19T12:33:54;2.95;;;1.80;;
27921;SDS011;15261;50.356;10.340;2022-08-19T12:36:20;2.10;;;1.90;;
27921;SDS011;15261;50.356;10.340;2022-08-19T12:38:46;5.15;;;1.80;;
27921;SDS011;15261;50.356;10.340;2022-08-19T12:41:13;4.05;;;2.13;;
27921;SDS011;15261;50.356;10.340;2022-08-19T12:43:40;1.92;;;1.80;;
27921;SDS011;15261;50.356;10.340;2022-08-19T12:46:09;2.42;;;1.77;;
27921;SDS011;15261;50.356;10.340;2022-08-19T12:48:35;2.60;;;1.70;;
27921;SDS011;15261;50.356;10.340;2022-08-19T12:51:17;2.22;;;1.90;;
27921;SDS011;15261;50.356;10.340;2022-08-19T12:56:40;4.82;;;1.90;;
27921;SDS011;15261;50.356;10.340;2022-08-19T12:59:08;6.55;;;2.10;;
27921;SDS011;15261;50.356;10.340;2022-08-19T13:01:42;2.40;;;2.20;;
27921;SDS011;15261;50.356;10.340;2022-08-19T13:04:09;3.78;;;2.22;;
27921;SDS011;15261;50.356;10.340;2022-08-19T13:06:39;3.70;;;2.00;;
27921;SDS011;15261;50.356;10.340;2022-08-19T13:09:23;2.38;;;2.13;;
27921;SDS011;15261;50.356;10.340;2022-08-19T13:11:59;2.95;;;1.95;;
27921;SDS011;15261;50.356;10.340;2022-08-19T13:14:36;2.15;;;2.00;;
27921;SDS011;15261;50.356;10.340;2022-08-19T13:17:14;1.98;;;1.88;;
27921;SDS011;15261;50.356;10.340;2022-08-19T13:19:49;1.88;;;1.77;;
27921;SDS011;15261;50.356;10.340;2022-08-19T13:22:25;2.47;;;2.00;;
27921;SDS011;15261;50.356;10.340;2022-08-19T13:28:13;1.70;;;1.60;;
27921;SDS011;15261;50.356;10.340;2022-08-19T13:30:46;3.20;;;2.10;;
27921;SDS011;15261;50.356;10.340;2022-08-19T13:33:36;3.17;;;1.90;;
27921;SDS011;15261;50.356;10.340;2022-08-19T13:39:25;5.90;;;1.98;;
27921;SDS011;15261;50.356;10.340;2022-08-19T13:41:50;3.25;;;1.70;;
27921;SDS011;15261;50.356;10.340;2022-08-19T13:44:16;5.50;;;1.80;;
27921;SDS011;15261;50.356;10.340;2022-08-19T13:46:43;1.77;;;1.67;;
27921;SDS011;15261;50.356;10.340;2022-08-19T13:49:10;2.03;;;1.85;;
27921;SDS011;15261;50.356;10.340;2022-08-19T13:51:38;1.75;;;1.65;;
27921;SDS011;15261;50.356;10.340;2022-08-19T13:54:07;1.90;;;1.70;;
27921;SDS011;15261;50.356;10.340;2022-08-19T13:56:34;2.20;;;2.00;;
27921;SDS011;15261;50.356;10.340;2022-08-19T13:59:04;1.98;;;1.73;;
27921;SDS011;15261;50.356;10.340;2022-08-19T14:01:29;2.05;;;1.95;;
27921;SDS011;15261;50.356;10.340;2022-08-19T14:03:55;5.20;;;1.75;;
27921;SDS011;15261;50.356;10.340;2022-08-19T14:06:21;4.28;;;1.88;;
27921;SDS011;15261;50.356;10.340;2022-08-19T14:08:47;2.45;;;2.00;;
27921;SDS011;15261;50.356;10.340;2022-08-19T14:11:23;2.83;;;2.20;;
27921;SDS011;15261;50.356;10.340;2022-08-19T14:14:12;2.83;;;2.10;;
27921;SDS011;15261;50.356;10.340;2022-08-19T14:16:37;2.00;;;1.90;;
27921;SDS011;15261;50.356;10.340;2022-08-19T14:19:03;2.10;;;1.90;;
27921;SDS011;15261;50.356;10.340;2022-08-19T14:21:28;2.03;;;1.92;;
27921;SDS011;15261;50.356;10.340;2022-08-19T14:23:54;2.63;;;1.88;;
27921;SDS011;15261;50.356;10.340;2022-08-19T14:26:20;3.10;;;2.00;;
27921;SDS011;15261;50.356;10.340;2022-08-19T14:28:48;2.25;;;1.90;;
27921;SDS011;15261;50.356;10.340;2022-08-19T14:31:17;3.40;;;2.00;;
27921;SDS011;15261;50.356;10.340;2022-08-19T14:33:44;2.33;;;2.00;;
27921;SDS011;15261;50.356;10.340;2022-08-19T14:36:11;2.30;;;2.10;;
27921;SDS011;15261;50.356;10.340;2022-08-19T14:38:37;6.00;;;2.42;;
27921;SDS011;15261;50.356;10.340;2022-08-19T14:41:14;4.72;;;2.30;;
27921;SDS011;15261;50.356;10.340;2022-08-19T14:43:46;3.08;;;2.20;;
27921;SDS011;15261;50.356;10.340;2022-08-19T14:46:15;3.15;;;2.20;;
27921;SDS011;15261;50.356;10.340;2022-08-19T14:48:42;3.35;;;2.15;;
27921;SDS011;15261;50.356;10.340;2022-08-19T14:51:08;3.97;;;2.13;;
27921;SDS011;15261;50.356;10.340;2022-08-19T14:53:33;4.55;;;2.35;;
27921;SDS011;15261;50.356;10.340;2022-08-19T14:55:59;2.45;;;2.20;;
27921;SDS011;15261;50.356;10.340;2022-08-19T14:58:26;2.88;;;2.30;;
27921;SDS011;15261;50.356;10.340;2022-08-19T15:00:52;6.50;;;2.78;;
27921;SDS011;15261;50.356;10.340;2022-08-19T15:03:17;2.47;;;2.28;;
27921;SDS011;15261;50.356;10.340;2022-08-19T15:05:43;2.40;;;2.20;;
27921;SDS011;15261;50.356;10.340;2022-08-19T15:08:09;5.72;;;2.30;;
27921;SDS011;15261;50.356;10.340;2022-08-19T15:10:35;2.50;;;2.20;;
27921;SDS011;15261;50.356;10.340;2022-08-19T15:13:02;2.45;;;2.25;;
27921;SDS011;15261;50.356;10.340;2022-08-19T15:15:28;2.50;;;2.30;;
27921;SDS011;15261;50.356;10.340;2022-08-19T15:17:53;6.43;;;2.40;;
27921;SDS011;15261;50.356;10.340;2022-08-19T15:20:19;3.20;;;2.50;;
27921;SDS011;15261;50.356;10.340;2022-08-19T15:22:47;4.63;;;2.30;;
27921;SDS011;15261;50.356;10.340;2022-08-19T15:25:14;2.20;;;2.10;;
27921;SDS011;15261;50.356;10.340;2022-08-19T15:27:41;2.35;;;2.15;;
27921;SDS011;15261;50.356;10.340;2022-08-19T15:30:08;2.40;;;2.20;;
27921;SDS011;15261;50.356;10.340;2022-08-19T15:32:35;3.67;;;2.20;;
27921;SDS011;15261;50.356;10.340;2022-08-19T15:35:02;2.50;;;2.30;;
27921;SDS011;15261;50.356;10.340;2022-08-19T15:37:29;2.30;;;2.13;;
27921;SDS011;15261;50.356;10.340;2022-08-19T15:39:55;2.22;;;2.10;;
27921;SDS011;15261;50.356;10.340;2022-08-19T15:42:21;4.88;;;2.40;;
27921;SDS011;15261;50.356;10.340;2022-08-19T15:44:47;2.45;;;2.25;;